sensor_id;sensor_type;location;lat;lon;timestamp;P1;P2;P0
29460;PMS7003;16428;47.836;35.106;2023-03-14T00:01:21;101.50;87.00;56.00
29460;PMS7003;16428;47.836;35.106;2023-03-14T00:03:49;67.50;52.75;27.75
29460;PMS7003;16428;47.836;35.106;2023-03-14T00:06:17;86.00;70.67;48.00
29460;PMS7003;16428;47.836;35.106;2023-03-14T00:08:45;53.50;41.00;10.75
29460;PMS7003;16428;47.836;35.106;2023-03-14T00:11:18;93.00;75.50;53.00
29460;PMS7003;16428;47.836;35.106;2023-03-14T00:13:50;90.50;75.00;50.25
29460;PMS7003;16428;47.836;35.106;2023-03-14T00:16:24;46.00;40.67;21.67
29460;PMS7003;16428;47.836;35.106;2023-03-14T00:18:52;82.33;67.33;46.67
29460;PMS7003;16428;47.836;35.106;2023-03-14T00:21:20;89.75;71.25;50.50
29460;PMS7003;16428;47.836;35.106;2023-03-14T00:23:49;63.50;45.50;26.75
29460;PMS7003;16428;47.836;35.106;2023-03-14T00:26:18;88.25;66.00;44.50
29460;PMS7003;16428;47.836;35.106;2023-03-14T00:28:50;93.67;74.33;48.00
29460;PMS7003;16428;47.836;35.106;2023-03-14T00:31:19;84.67;67.33;45.00
29460;PMS7003;16428;47.836;35.106;2023-03-14T00:33:47;91.33;71.33;48.00
29460;PMS7003;16428;47.836;35.106;2023-03-14T00:36:16;90.33;72.67;45.33
29460;PMS7003;16428;47.836;35.106;2023-03-14T00:38:45;91.67;69.67;42.67
29460;PMS7003;16428;47.836;35.106;2023-03-14T00:41:24;85.33;66.67;43.67
29460;PMS7003;16428;47.836;35.106;2023-03-14T00:43:51;84.00;65.00;44.33
29460;PMS7003;16428;47.836;35.106;2023-03-14T00:46:19;86.67;69.67;46.00
29460;PMS7003;16428;47.836;35.106;2023-03-14T00:48:46;89.00;67.67;43.67
29460;PMS7003;16428;47.836;35.106;2023-03-14T00:51:14;74.67;59.00;41.00
29460;PMS7003;16428;47.836;35.106;2023-03-14T00:53:42;82.33;63.33;42.67
29460;PMS7003;16428;47.836;35.106;2023-03-14T00:56:11;93.33;72.67;46.33
29460;PMS7003;16428;47.836;35.106;2023-03-14T00:58:39;81.67;62.33;41.00
29460;PMS7003;16428;47.836;35.106;2023-03-14T01:01:08;68.67;56.00;39.00
29460;PMS7003;16428;47.836;35.106;2023-03-14T01:03:37;65.00;52.33;34.67
29460;PMS7003;16428;47.836;35.106;2023-03-14T01:08:37;41.00;37.67;27.00
29460;PMS7003;16428;47.836;35.106;2023-03-14T01:11:06;39.00;35.00;24.00
29460;PMS7003;16428;47.836;35.106;2023-03-14T01:13:38;43.33;34.67;24.00
29460;PMS7003;16428;47.836;35.106;2023-03-14T01:16:08;34.00;31.00;25.00
29460;PMS7003;16428;47.836;35.106;2023-03-14T01:18:37;29.33;26.00;20.33
29460;PMS7003;16428;47.836;35.106;2023-03-14T01:21:14;34.33;25.67;20.00
29460;PMS7003;16428;47.836;35.106;2023-03-14T01:23:45;21.50;18.50;16.50
29460;PMS7003;16428;47.836;35.106;2023-03-14T01:26:16;26.00;22.00;18.67
29460;PMS7003;16428;47.836;35.106;2023-03-14T01:28:50;21.50;18.50;13.50
29460;PMS7003;16428;47.836;35.106;2023-03-14T01:31:20;22.75;21.00;16.50
29460;PMS7003;16428;47.836;35.106;2023-03-14T01:33:47;20.75;19.00;15.50
29460;PMS7003;16428;47.836;35.106;2023-03-14T01:36:16;21.00;21.00;15.75
29460;PMS7003;16428;47.836;35.106;2023-03-14T01:38:50;28.00;23.75;17.25
29460;PMS7003;16428;47.836;35.106;2023-03-14T01:41:21;27.00;18.50;12.75
29460;PMS7003;16428;47.836;35.106;2023-03-14T01:43:50;21.00;17.00;12.75
29460;PMS7003;16428;47.836;35.106;2023-03-14T01:46:22;25.00;22.00;15.75
29460;PMS7003;16428;47.836;35.106;2023-03-14T01:51:54;18.25;16.00;10.75
29460;PMS7003;16428;47.836;35.106;2023-03-14T01:54:44;19.50;16.50;13.50
29460;PMS7003;16428;47.836;35.106;2023-03-14T01:57:20;18.00;15.00;12.50
29460;PMS7003;16428;47.836;35.106;2023-03-14T02:02:45;17.00;14.75;12.00
29460;PMS7003;16428;47.836;35.106;2023-03-14T02:05:16;20.25;17.00;11.50
29460;PMS7003;16428;47.836;35.106;2023-03-14T02:07:47;16.00;15.75;11.50
29460;PMS7003;16428;47.836;35.106;2023-03-14T02:10:22;16.50;16.50;12.25
29460;PMS7003;16428;47.836;35.106;2023-03-14T02:12:55;15.00;15.00;11.25
29460;PMS7003;16428;47.836;35.106;2023-03-14T02:15:26;19.50;17.25;13.50
29460;PMS7003;16428;47.836;35.106;2023-03-14T02:17:58;18.25;17.25;12.50
29460;PMS7003;16428;47.836;35.106;2023-03-14T02:23:13;27.00;20.25;17.00
29460;PMS7003;16428;47.836;35.106;2023-03-14T02:28:35;23.75;20.00;15.00
29460;PMS7003;16428;47.836;35.106;2023-03-14T02:31:03;33.75;21.50;17.50
29460;PMS7003;16428;47.836;35.106;2023-03-14T02:33:30;32.33;31.00;22.67
29460;PMS7003;16428;47.836;35.106;2023-03-14T02:36:02;26.50;23.25;19.00
29460;PMS7003;16428;47.836;35.106;2023-03-14T02:39:20;23.50;23.50;17.25
29460;PMS7003;16428;47.836;35.106;2023-03-14T02:41:26;22.50;21.00;16.25
29460;PMS7003;16428;47.836;35.106;2023-03-14T02:43:56;27.00;25.00;17.50
29460;PMS7003;16428;47.836;35.106;2023-03-14T02:46:24;17.00;17.00;15.00
29460;PMS7003;16428;47.836;35.106;2023-03-14T02:48:56;20.00;20.00;15.00
29460;PMS7003;16428;47.836;35.106;2023-03-14T02:51:27;19.75;18.50;15.00
29460;PMS7003;16428;47.836;35.106;2023-03-14T02:53:56;16.75;16.00;13.00
29460;PMS7003;16428;47.836;35.106;2023-03-14T02:56:24;24.00;17.75;15.00
29460;PMS7003;16428;47.836;35.106;2023-03-14T02:58:52;12.00;8.75;6.50
29460;PMS7003;16428;47.836;35.106;2023-03-14T03:01:19;18.50;18.00;13.00
29460;PMS7003;16428;47.836;35.106;2023-03-14T03:03:48;18.25;18.25;14.75
29460;PMS7003;16428;47.836;35.106;2023-03-14T03:06:16;20.50;17.75;13.00
29460;PMS7003;16428;47.836;35.106;2023-03-14T03:08:43;16.75;16.75;16.00
29460;PMS7003;16428;47.836;35.106;2023-03-14T03:11:10;18.00;12.50;10.50
29460;PMS7003;16428;47.836;35.106;2023-03-14T03:13:38;22.00;16.75;13.50
29460;PMS7003;16428;47.836;35.106;2023-03-14T03:16:06;13.75;13.75;11.25
29460;PMS7003;16428;47.836;35.106;2023-03-14T03:18:34;17.50;15.25;11.00
29460;PMS7003;16428;47.836;35.106;2023-03-14T03:21:03;20.00;16.00;12.00
29460;PMS7003;16428;47.836;35.106;2023-03-14T03:23:37;23.00;14.75;11.75
29460;PMS7003;16428;47.836;35.106;2023-03-14T03:26:04;24.25;13.00;11.00
29460;PMS7003;16428;47.836;35.106;2023-03-14T03:28:33;21.25;17.00;15.00
29460;PMS7003;16428;47.836;35.106;2023-03-14T03:31:06;20.33;20.33;15.67
29460;PMS7003;16428;47.836;35.106;2023-03-14T03:33:38;14.67;14.67;13.00
29460;PMS7003;16428;47.836;35.106;2023-03-14T03:36:06;17.75;13.50;10.75
29460;PMS7003;16428;47.836;35.106;2023-03-14T03:38:36;17.25;12.50;11.75
29460;PMS7003;16428;47.836;35.106;2023-03-14T03:41:09;14.00;14.00;12.50
29460;PMS7003;16428;47.836;35.106;2023-03-14T03:43:37;18.00;16.50;12.50
29460;PMS7003;16428;47.836;35.106;2023-03-14T03:46:05;16.50;15.00;13.00
29460;PMS7003;16428;47.836;35.106;2023-03-14T03:48:35;15.75;13.50;10.00
29460;PMS7003;16428;47.836;35.106;2023-03-14T03:51:03;10.50;10.50;7.75
29460;PMS7003;16428;47.836;35.106;2023-03-14T03:53:30;14.50;13.00;11.00
29460;PMS7003;16428;47.836;35.106;2023-03-14T03:55:59;22.75;16.50;13.25
29460;PMS7003;16428;47.836;35.106;2023-03-14T03:58:28;15.25;13.00;8.50
29460;PMS7003;16428;47.836;35.106;2023-03-14T04:00:55;10.00;10.00;9.50
29460;PMS7003;16428;47.836;35.106;2023-03-14T04:03:23;15.25;13.50;10.75
29460;PMS7003;16428;47.836;35.106;2023-03-14T04:06:00;16.50;13.00;10.50
29460;PMS7003;16428;47.836;35.106;2023-03-14T04:08:33;18.50;18.50;12.00
29460;PMS7003;16428;47.836;35.106;2023-03-14T04:11:03;15.00;12.25;9.00
29460;PMS7003;16428;47.836;35.106;2023-03-14T04:13:31;17.75;15.25;12.25
29460;PMS7003;16428;47.836;35.106;2023-03-14T04:15:59;10.50;6.25;5.25
29460;PMS7003;16428;47.836;35.106;2023-03-14T04:18:31;25.00;21.00;15.33
29460;PMS7003;16428;47.836;35.106;2023-03-14T04:20:59;22.50;17.25;15.25
29460;PMS7003;16428;47.836;35.106;2023-03-14T04:23:26;16.25;16.25;12.25
29460;PMS7003;16428;47.836;35.106;2023-03-14T04:25:57;24.00;20.00;15.00
29460;PMS7003;16428;47.836;35.106;2023-03-14T04:28:25;14.33;13.67;12.33
29460;PMS7003;16428;47.836;35.106;2023-03-14T04:30:53;21.67;21.67;16.67
29460;PMS7003;16428;47.836;35.106;2023-03-14T04:33:22;15.50;15.50;12.50
29460;PMS7003;16428;47.836;35.106;2023-03-14T04:35:52;35.33;30.33;24.67
29460;PMS7003;16428;47.836;35.106;2023-03-14T04:38:21;28.00;28.00;21.00
29460;PMS7003;16428;47.836;35.106;2023-03-14T04:40:49;30.00;25.00;17.00
29460;PMS7003;16428;47.836;35.106;2023-03-14T04:43:17;35.00;28.67;22.67
29460;PMS7003;16428;47.836;35.106;2023-03-14T04:45:50;25.33;23.67;16.33
29460;PMS7003;16428;47.836;35.106;2023-03-14T04:48:18;20.00;18.00;16.00
29460;PMS7003;16428;47.836;35.106;2023-03-14T04:50:46;28.00;22.00;18.00
29460;PMS7003;16428;47.836;35.106;2023-03-14T04:53:15;26.00;24.33;19.33
29460;PMS7003;16428;47.836;35.106;2023-03-14T04:55:54;32.00;23.00;17.00
29460;PMS7003;16428;47.836;35.106;2023-03-14T04:58:23;20.50;20.00;15.75
29460;PMS7003;16428;47.836;35.106;2023-03-14T05:00:51;26.25;26.25;19.25
29460;PMS7003;16428;47.836;35.106;2023-03-14T05:03:19;24.50;20.00;14.75
29460;PMS7003;16428;47.836;35.106;2023-03-14T05:05:47;27.00;27.00;18.00
29460;PMS7003;16428;47.836;35.106;2023-03-14T05:08:14;22.50;21.50;16.50
29460;PMS7003;16428;47.836;35.106;2023-03-14T05:10:44;20.50;20.50;17.25
29460;PMS7003;16428;47.836;35.106;2023-03-14T05:13:19;28.67;25.33;19.00
29460;PMS7003;16428;47.836;35.106;2023-03-14T05:15:47;28.50;25.00;19.25
29460;PMS7003;16428;47.836;35.106;2023-03-14T05:18:17;27.25;22.25;17.75
29460;PMS7003;16428;47.836;35.106;2023-03-14T05:20:45;39.00;24.50;17.25
29460;PMS7003;16428;47.836;35.106;2023-03-14T05:23:13;26.00;23.25;17.50
29460;PMS7003;16428;47.836;35.106;2023-03-14T05:25:42;24.75;23.25;20.00
29460;PMS7003;16428;47.836;35.106;2023-03-14T05:28:11;26.75;21.25;16.50
29460;PMS7003;16428;47.836;35.106;2023-03-14T05:30:38;26.00;26.00;18.75
29460;PMS7003;16428;47.836;35.106;2023-03-14T05:33:06;23.50;17.50;14.00
29460;PMS7003;16428;47.836;35.106;2023-03-14T05:35:34;34.50;27.00;16.50
29460;PMS7003;16428;47.836;35.106;2023-03-14T05:38:05;25.50;25.50;20.75
29460;PMS7003;16428;47.836;35.106;2023-03-14T05:40:33;20.25;18.25;12.00
29460;PMS7003;16428;47.836;35.106;2023-03-14T05:43:01;21.00;19.50;14.25
29460;PMS7003;16428;47.836;35.106;2023-03-14T05:45:29;24.00;20.25;16.25
29460;PMS7003;16428;47.836;35.106;2023-03-14T05:47:56;17.75;15.75;13.00
29460;PMS7003;16428;47.836;35.106;2023-03-14T05:50:24;28.25;19.75;13.00
29460;PMS7003;16428;47.836;35.106;2023-03-14T05:52:52;24.50;20.00;16.75
29460;PMS7003;16428;47.836;35.106;2023-03-14T05:55:20;19.50;16.75;13.50
29460;PMS7003;16428;47.836;35.106;2023-03-14T05:57:47;20.50;16.50;13.00
29460;PMS7003;16428;47.836;35.106;2023-03-14T06:00:15;28.00;12.75;11.50
29460;PMS7003;16428;47.836;35.106;2023-03-14T06:02:43;13.00;12.75;11.00
29460;PMS7003;16428;47.836;35.106;2023-03-14T06:05:11;15.25;15.25;13.00
29460;PMS7003;16428;47.836;35.106;2023-03-14T06:07:40;13.50;12.25;10.25
29460;PMS7003;16428;47.836;35.106;2023-03-14T06:10:07;8.00;8.00;7.00
29460;PMS7003;16428;47.836;35.106;2023-03-14T06:12:35;11.25;11.25;10.25
29460;PMS7003;16428;47.836;35.106;2023-03-14T06:15:03;10.50;10.50;9.75
29460;PMS7003;16428;47.836;35.106;2023-03-14T06:17:36;11.25;11.25;9.50
29460;PMS7003;16428;47.836;35.106;2023-03-14T06:20:04;23.75;14.00;10.75
29460;PMS7003;16428;47.836;35.106;2023-03-14T06:22:32;10.25;10.25;6.75
29460;PMS7003;16428;47.836;35.106;2023-03-14T06:25:01;18.00;12.50;11.00
29460;PMS7003;16428;47.836;35.106;2023-03-14T06:27:50;13.75;11.50;11.50
29460;PMS7003;16428;47.836;35.106;2023-03-14T06:30:18;12.25;10.50;9.50
29460;PMS7003;16428;47.836;35.106;2023-03-14T06:32:46;11.00;10.00;8.00
29460;PMS7003;16428;47.836;35.106;2023-03-14T06:35:15;12.25;11.50;8.50
29460;PMS7003;16428;47.836;35.106;2023-03-14T06:37:44;14.50;11.25;9.25
29460;PMS7003;16428;47.836;35.106;2023-03-14T06:40:11;16.75;13.50;10.75
29460;PMS7003;16428;47.836;35.106;2023-03-14T06:42:45;12.00;10.50;9.75
29460;PMS7003;16428;47.836;35.106;2023-03-14T06:45:13;15.25;12.50;9.25
29460;PMS7003;16428;47.836;35.106;2023-03-14T06:47:43;15.50;11.00;9.50
29460;PMS7003;16428;47.836;35.106;2023-03-14T06:50:11;11.50;8.00;7.00
29460;PMS7003;16428;47.836;35.106;2023-03-14T06:52:38;11.75;9.00;7.50
29460;PMS7003;16428;47.836;35.106;2023-03-14T06:55:16;13.25;10.00;7.75
29460;PMS7003;16428;47.836;35.106;2023-03-14T06:57:45;9.50;8.00;7.50
29460;PMS7003;16428;47.836;35.106;2023-03-14T07:00:15;14.25;13.75;10.00
29460;PMS7003;16428;47.836;35.106;2023-03-14T07:02:44;15.00;11.75;9.25
29460;PMS7003;16428;47.836;35.106;2023-03-14T07:05:12;14.25;14.00;10.00
29460;PMS7003;16428;47.836;35.106;2023-03-14T07:07:40;17.00;14.75;10.25
29460;PMS7003;16428;47.836;35.106;2023-03-14T07:10:07;10.00;10.00;8.00
29460;PMS7003;16428;47.836;35.106;2023-03-14T07:12:40;11.00;9.75;8.25
29460;PMS7003;16428;47.836;35.106;2023-03-14T07:15:09;12.75;12.00;10.50
29460;PMS7003;16428;47.836;35.106;2023-03-14T07:17:45;14.25;12.25;10.00
29460;PMS7003;16428;47.836;35.106;2023-03-14T07:20:18;18.00;12.00;9.25
29460;PMS7003;16428;47.836;35.106;2023-03-14T07:22:47;9.25;9.25;8.00
29460;PMS7003;16428;47.836;35.106;2023-03-14T07:25:16;31.50;28.00;20.75
29460;PMS7003;16428;47.836;35.106;2023-03-14T07:27:45;17.50;16.25;12.50
29460;PMS7003;16428;47.836;35.106;2023-03-14T07:30:15;11.50;11.50;10.00
29460;PMS7003;16428;47.836;35.106;2023-03-14T07:32:43;15.50;13.50;10.25
29460;PMS7003;16428;47.836;35.106;2023-03-14T07:35:11;13.75;12.00;10.25
29460;PMS7003;16428;47.836;35.106;2023-03-14T07:37:38;11.75;11.50;10.00
29460;PMS7003;16428;47.836;35.106;2023-03-14T07:40:06;13.50;12.50;10.50
29460;PMS7003;16428;47.836;35.106;2023-03-14T07:42:34;15.50;8.50;7.00
29460;PMS7003;16428;47.836;35.106;2023-03-14T07:45:08;25.50;18.25;14.00
29460;PMS7003;16428;47.836;35.106;2023-03-14T07:47:38;16.50;16.00;9.75
29460;PMS7003;16428;47.836;35.106;2023-03-14T07:50:05;12.00;10.00;7.25
29460;PMS7003;16428;47.836;35.106;2023-03-14T07:52:34;12.00;12.00;9.50
29460;PMS7003;16428;47.836;35.106;2023-03-14T07:55:02;9.25;4.50;3.50
29460;PMS7003;16428;47.836;35.106;2023-03-14T07:57:30;5.00;5.00;4.00
29460;PMS7003;16428;47.836;35.106;2023-03-14T07:59:57;13.00;13.00;9.50
29460;PMS7003;16428;47.836;35.106;2023-03-14T08:02:24;12.75;12.50;9.75
29460;PMS7003;16428;47.836;35.106;2023-03-14T08:04:52;13.50;13.50;11.50
29460;PMS7003;16428;47.836;35.106;2023-03-14T08:07:20;17.00;13.00;10.50
29460;PMS7003;16428;47.836;35.106;2023-03-14T08:09:49;14.50;11.75;9.00
29460;PMS7003;16428;47.836;35.106;2023-03-14T08:12:16;12.50;12.25;10.25
29460;PMS7003;16428;47.836;35.106;2023-03-14T08:14:44;18.25;12.50;11.00
29460;PMS7003;16428;47.836;35.106;2023-03-14T08:17:13;15.00;13.25;11.00
29460;PMS7003;16428;47.836;35.106;2023-03-14T08:19:42;15.75;15.00;12.75
29460;PMS7003;16428;47.836;35.106;2023-03-14T08:22:09;16.50;13.00;12.00
29460;PMS7003;16428;47.836;35.106;2023-03-14T08:24:37;12.00;12.00;10.00
29460;PMS7003;16428;47.836;35.106;2023-03-14T08:27:04;13.00;12.50;9.25
29460;PMS7003;16428;47.836;35.106;2023-03-14T08:29:34;18.25;15.50;13.00
29460;PMS7003;16428;47.836;35.106;2023-03-14T08:32:02;13.75;13.75;11.25
29460;PMS7003;16428;47.836;35.106;2023-03-14T08:34:29;13.50;11.00;8.25
29460;PMS7003;16428;47.836;35.106;2023-03-14T08:36:57;16.00;14.50;10.75
29460;PMS7003;16428;47.836;35.106;2023-03-14T08:39:25;17.50;17.00;15.00
29460;PMS7003;16428;47.836;35.106;2023-03-14T08:41:52;18.00;12.50;9.50
29460;PMS7003;16428;47.836;35.106;2023-03-14T08:44:20;13.50;11.75;9.00
29460;PMS7003;16428;47.836;35.106;2023-03-14T08:46:48;18.75;15.50;12.75
29460;PMS7003;16428;47.836;35.106;2023-03-14T08:49:16;14.00;12.50;11.00
29460;PMS7003;16428;47.836;35.106;2023-03-14T08:51:44;18.25;15.75;13.00
29460;PMS7003;16428;47.836;35.106;2023-03-14T08:54:12;15.00;14.25;12.25
29460;PMS7003;16428;47.836;35.106;2023-03-14T08:56:41;13.00;13.00;11.75
29460;PMS7003;16428;47.836;35.106;2023-03-14T08:59:08;13.25;12.25;11.00
29460;PMS7003;16428;47.836;35.106;2023-03-14T09:01:40;14.75;13.50;11.25
29460;PMS7003;16428;47.836;35.106;2023-03-14T09:04:07;10.00;9.00;7.00
29460;PMS7003;16428;47.836;35.106;2023-03-14T09:06:38;11.50;11.50;8.25
29460;PMS7003;16428;47.836;35.106;2023-03-14T09:09:05;14.25;13.25;10.25
29460;PMS7003;16428;47.836;35.106;2023-03-14T09:11:33;14.00;11.75;10.50
29460;PMS7003;16428;47.836;35.106;2023-03-14T09:14:01;8.50;8.50;5.75
29460;PMS7003;16428;47.836;35.106;2023-03-14T09:16:28;10.75;10.75;10.50
29460;PMS7003;16428;47.836;35.106;2023-03-14T09:18:56;11.00;11.00;7.50
29460;PMS7003;16428;47.836;35.106;2023-03-14T09:21:27;16.75;14.00;11.25
29460;PMS7003;16428;47.836;35.106;2023-03-14T09:23:54;17.75;11.25;8.25
29460;PMS7003;16428;47.836;35.106;2023-03-14T09:26:22;17.67;13.00;11.33
29460;PMS7003;16428;47.836;35.106;2023-03-14T09:28:50;12.00;12.00;9.67
29460;PMS7003;16428;47.836;35.106;2023-03-14T09:31:18;13.67;13.67;11.67
29460;PMS7003;16428;47.836;35.106;2023-03-14T09:33:46;19.33;15.00;13.00
29460;PMS7003;16428;47.836;35.106;2023-03-14T09:36:14;13.33;12.33;9.33
29460;PMS7003;16428;47.836;35.106;2023-03-14T09:38:42;14.67;13.67;12.67
29460;PMS7003;16428;47.836;35.106;2023-03-14T09:41:12;16.00;16.00;13.00
29460;PMS7003;16428;47.836;35.106;2023-03-14T09:43:57;20.25;20.25;16.00
29460;PMS7003;16428;47.836;35.106;2023-03-14T09:46:31;14.00;13.33;9.33
29460;PMS7003;16428;47.836;35.106;2023-03-14T09:49:02;20.67;16.00;13.33
29460;PMS7003;16428;47.836;35.106;2023-03-14T09:51:32;16.00;14.33;12.00
29460;PMS7003;16428;47.836;35.106;2023-03-14T09:54:00;16.67;14.00;12.33
29460;PMS7003;16428;47.836;35.106;2023-03-14T09:56:29;15.33;15.33;13.00
29460;PMS7003;16428;47.836;35.106;2023-03-14T09:59:00;14.75;14.75;11.50
29460;PMS7003;16428;47.836;35.106;2023-03-14T10:01:31;14.33;11.00;9.33
29460;PMS7003;16428;47.836;35.106;2023-03-14T10:04:05;17.00;17.00;13.00
29460;PMS7003;16428;47.836;35.106;2023-03-14T10:06:42;24.33;21.00;15.00
29460;PMS7003;16428;47.836;35.106;2023-03-14T10:09:13;26.33;23.67;17.67
29460;PMS7003;16428;47.836;35.106;2023-03-14T10:11:58;16.00;15.00;10.75
29460;PMS7003;16428;47.836;35.106;2023-03-14T10:14:38;15.50;15.50;11.50
29460;PMS7003;16428;47.836;35.106;2023-03-14T10:17:14;14.00;12.75;11.50
29460;PMS7003;16428;47.836;35.106;2023-03-14T10:19:56;12.25;11.00;9.00
29460;PMS7003;16428;47.836;35.106;2023-03-14T10:22:28;16.25;13.25;10.00
29460;PMS7003;16428;47.836;35.106;2023-03-14T10:25:04;12.00;12.00;9.50
29460;PMS7003;16428;47.836;35.106;2023-03-14T10:27:35;11.50;11.50;10.50
29460;PMS7003;16428;47.836;35.106;2023-03-14T10:30:04;11.00;9.00;7.50
29460;PMS7003;16428;47.836;35.106;2023-03-14T10:32:37;17.50;16.00;11.50
29460;PMS7003;16428;47.836;35.106;2023-03-14T10:37:56;15.25;12.75;9.25
29460;PMS7003;16428;47.836;35.106;2023-03-14T10:40:31;10.50;10.00;8.75
29460;PMS7003;16428;47.836;35.106;2023-03-14T10:43:07;11.50;9.00;7.00
29460;PMS7003;16428;47.836;35.106;2023-03-14T10:45:43;12.75;10.75;9.50
29460;PMS7003;16428;47.836;35.106;2023-03-14T10:53:24;11.50;11.50;8.75
29460;PMS7003;16428;47.836;35.106;2023-03-14T10:55:55;3.75;3.75;2.75
29460;PMS7003;16428;47.836;35.106;2023-03-14T10:58:25;9.25;9.25;7.75
29460;PMS7003;16428;47.836;35.106;2023-03-14T11:03:51;7.25;7.25;5.75
29460;PMS7003;16428;47.836;35.106;2023-03-14T11:06:26;9.75;9.75;8.25
29460;PMS7003;16428;47.836;35.106;2023-03-14T11:09:06;12.25;9.75;8.75
29460;PMS7003;16428;47.836;35.106;2023-03-14T11:11:45;10.00;9.50;8.00
29460;PMS7003;16428;47.836;35.106;2023-03-14T11:22:47;9.50;9.50;7.25
29460;PMS7003;16428;47.836;35.106;2023-03-14T11:28:23;11.75;11.75;9.75
29460;PMS7003;16428;47.836;35.106;2023-03-14T11:31:15;7.75;7.75;6.75
29460;PMS7003;16428;47.836;35.106;2023-03-14T11:37:06;5.75;5.75;4.50
29460;PMS7003;16428;47.836;35.106;2023-03-14T11:39:44;7.75;7.75;7.25
29460;PMS7003;16428;47.836;35.106;2023-03-14T11:42:19;5.50;5.50;5.00
29460;PMS7003;16428;47.836;35.106;2023-03-14T11:44:49;6.00;6.00;4.75
29460;PMS7003;16428;47.836;35.106;2023-03-14T11:47:31;5.25;4.25;3.50
29460;PMS7003;16428;47.836;35.106;2023-03-14T11:52:52;7.50;7.50;6.00
29460;PMS7003;16428;47.836;35.106;2023-03-14T11:55:54;12.75;11.75;8.75
29460;PMS7003;16428;47.836;35.106;2023-03-14T11:58:26;12.25;9.50;7.25
29460;PMS7003;16428;47.836;35.106;2023-03-14T12:00:56;15.25;10.25;7.00
29460;PMS7003;16428;47.836;35.106;2023-03-14T12:03:46;7.50;7.00;6.00
29460;PMS7003;16428;47.836;35.106;2023-03-14T12:06:35;9.50;7.00;6.00
29460;PMS7003;16428;47.836;35.106;2023-03-14T12:09:13;11.50;5.00;4.00
29460;PMS7003;16428;47.836;35.106;2023-03-14T12:11:50;8.00;7.50;6.25
29460;PMS7003;16428;47.836;35.106;2023-03-14T12:14:30;5.00;5.00;4.50
29460;PMS7003;16428;47.836;35.106;2023-03-14T12:19:37;6.33;4.67;4.33
29460;PMS7003;16428;47.836;35.106;2023-03-14T12:22:27;6.00;6.00;5.25
29460;PMS7003;16428;47.836;35.106;2023-03-14T12:25:38;5.75;5.75;5.25
29460;PMS7003;16428;47.836;35.106;2023-03-14T12:30:48;7.25;5.50;5.00
29460;PMS7003;16428;47.836;35.106;2023-03-14T12:43:27;5.50;5.50;5.00
29460;PMS7003;16428;47.836;35.106;2023-03-14T12:48:45;11.00;8.50;7.00
29460;PMS7003;16428;47.836;35.106;2023-03-14T12:51:19;9.00;9.00;7.50
29460;PMS7003;16428;47.836;35.106;2023-03-14T12:54:06;6.75;6.75;6.75
29460;PMS7003;16428;47.836;35.106;2023-03-14T12:59:32;7.60;5.80;4.80
29460;PMS7003;16428;47.836;35.106;2023-03-14T13:02:13;5.40;5.20;5.00
29460;PMS7003;16428;47.836;35.106;2023-03-14T13:05:05;6.80;6.80;5.80
29460;PMS7003;16428;47.836;35.106;2023-03-14T13:10:27;8.60;8.60;7.00
29460;PMS7003;16428;47.836;35.106;2023-03-14T13:13:21;9.40;8.40;7.20
29460;PMS7003;16428;47.836;35.106;2023-03-14T13:15:54;7.60;7.00;6.00
29460;PMS7003;16428;47.836;35.106;2023-03-14T13:18:37;12.00;10.40;8.60
29460;PMS7003;16428;47.836;35.106;2023-03-14T13:21:11;11.20;9.40;8.00
29460;PMS7003;16428;47.836;35.106;2023-03-14T13:26:35;10.40;9.40;8.00
29460;PMS7003;16428;47.836;35.106;2023-03-14T13:29:24;8.40;8.40;7.60
29460;PMS7003;16428;47.836;35.106;2023-03-14T13:31:55;7.20;7.20;6.00
29460;PMS7003;16428;47.836;35.106;2023-03-14T13:34:28;6.80;6.80;6.20
29460;PMS7003;16428;47.836;35.106;2023-03-14T13:36:58;9.80;8.00;7.40
29460;PMS7003;16428;47.836;35.106;2023-03-14T13:39:28;8.60;7.40;6.60
29460;PMS7003;16428;47.836;35.106;2023-03-14T13:42:00;8.00;8.00;7.20
29460;PMS7003;16428;47.836;35.106;2023-03-14T13:44:31;6.40;6.40;5.80
29460;PMS7003;16428;47.836;35.106;2023-03-14T13:47:02;6.40;5.00;4.60
29460;PMS7003;16428;47.836;35.106;2023-03-14T13:49:32;8.00;5.60;5.20
29460;PMS7003;16428;47.836;35.106;2023-03-14T13:52:21;6.40;6.40;5.80
29460;PMS7003;16428;47.836;35.106;2023-03-14T13:54:57;5.00;5.00;5.00
29460;PMS7003;16428;47.836;35.106;2023-03-14T13:57:27;5.00;5.00;4.00
29460;PMS7003;16428;47.836;35.106;2023-03-14T14:00:03;4.40;4.40;4.00
29460;PMS7003;16428;47.836;35.106;2023-03-14T14:02:50;6.20;6.20;5.00
29460;PMS7003;16428;47.836;35.106;2023-03-14T14:05:18;5.00;4.20;3.40
29460;PMS7003;16428;47.836;35.106;2023-03-14T14:07:48;4.80;4.80;4.00
29460;PMS7003;16428;47.836;35.106;2023-03-14T14:10:23;6.20;3.40;3.00
29460;PMS7003;16428;47.836;35.106;2023-03-14T14:15:21;4.80;4.80;4.00
29460;PMS7003;16428;47.836;35.106;2023-03-14T14:17:54;3.20;3.20;3.00
29460;PMS7003;16428;47.836;35.106;2023-03-14T14:20:31;8.20;7.20;6.60
29460;PMS7003;16428;47.836;35.106;2023-03-14T14:23:06;6.40;4.80;4.00
29460;PMS7003;16428;47.836;35.106;2023-03-14T14:25:39;9.60;6.20;5.20
29460;PMS7003;16428;47.836;35.106;2023-03-14T14:31:05;12.00;12.00;8.80
29460;PMS7003;16428;47.836;35.106;2023-03-14T14:33:44;8.20;8.00;6.40
29460;PMS7003;16428;47.836;35.106;2023-03-14T14:36:31;10.00;7.40;6.20
29460;PMS7003;16428;47.836;35.106;2023-03-14T14:39:15;9.80;9.80;7.40
29460;PMS7003;16428;47.836;35.106;2023-03-14T14:41:50;7.60;5.00;4.60
29460;PMS7003;16428;47.836;35.106;2023-03-14T14:44:29;5.60;5.60;4.80
29460;PMS7003;16428;47.836;35.106;2023-03-14T14:47:01;8.20;6.40;6.00
29460;PMS7003;16428;47.836;35.106;2023-03-14T14:49:30;10.00;10.00;8.00
29460;PMS7003;16428;47.836;35.106;2023-03-14T14:52:02;7.75;7.25;6.25
29460;PMS7003;16428;47.836;35.106;2023-03-14T14:54:44;6.00;4.25;3.50
29460;PMS7003;16428;47.836;35.106;2023-03-14T14:57:20;4.00;4.00;3.50
29460;PMS7003;16428;47.836;35.106;2023-03-14T15:00:09;7.50;7.00;6.75
29460;PMS7003;16428;47.836;35.106;2023-03-14T15:02:49;6.25;6.25;6.00
29460;PMS7003;16428;47.836;35.106;2023-03-14T15:05:22;5.25;5.25;3.75
29460;PMS7003;16428;47.836;35.106;2023-03-14T15:07:52;13.75;13.75;11.75
29460;PMS7003;16428;47.836;35.106;2023-03-14T15:10:23;7.75;7.75;6.75
29460;PMS7003;16428;47.836;35.106;2023-03-14T15:12:53;10.00;9.00;7.50
29460;PMS7003;16428;47.836;35.106;2023-03-14T15:15:20;12.75;10.75;9.00
29460;PMS7003;16428;47.836;35.106;2023-03-14T15:17:48;11.00;11.00;9.00
29460;PMS7003;16428;47.836;35.106;2023-03-14T15:20:16;10.33;8.33;7.00
29460;PMS7003;16428;47.836;35.106;2023-03-14T15:22:46;11.33;9.33;8.67